Morton, MS

3:57 AM CDT on August 30, 2015 (GMT -0500)
Leesburg | | Change Station
CLOSE
Current Station
Personal Weather Station
Location: Morton, MS
Elevation: 404 ft
Nearby Weather Stations

Elev 404 ft 32.41 °N, 89.75 °W | Updated 1 minute ago

Clear
Clear
68.8 °F
Feels Like 68.8 °F
N
0.0
Wind Variable Wind from ESE
Gusts 0.0 mph

Today
High -- | Low -- °F
--% Chance of Precip.
Yesterday
High -- | Low -- °F
Precip. -- in
6:32 AM 7:25 PM
Waxing Gibbous, 99% visible
Pressure 29.99 in
Visibility 10.0 miles
Clouds Clear
Dew Point 67 °F
Humidity 94%
Rainfall 0.00 in
Snow Depth Not available.
UV 0 out of 12
Pollen 9.00 out of 12
Air Quality Not available.
Flu Activity Not available.
METAR KJAN 300854Z AUTO 00000KT 10SM CLR 22/18 A3001 RMK AO2 SLP156 T02170183 55006
Pressure 29.99 in
Visibility 10.0 miles
Clouds Clear
Dew Point 67 °F
Humidity 94%
Rainfall 0.00 in
Snow Depth Not available.
UV 0 out of 12
Pollen 9.00 out of 12
Air Quality Not available.
Flu Activity Not available.
METAR KJAN 300854Z AUTO 00000KT 10SM CLR 22/18 A3001 RMK AO2 SLP156 T02170183 55006

10-Day Weather Forecast

×

Almanac

Astronomy

Aug. 30, 2015 Rise Set
Actual Time
Civil Twilight
Nautical Twilight
Astronomical Twilight
Moon
Length of Visible Light
Length of Day
Tomorrow will be .
, % of the Moon is Illuminated

Today's Extremes

State Highs State Lows

Community

WunderPhotos

Upload Photos

1,850,909 photos uploaded!

WunderBlogs® & News

Nearby

Air Quality

  Air Quality AQ Index Pollutant
Not available.

Snow Depth

Station Depth Elevation

Earthquake Activity

City Distance Mag. Time & Date
Minimum magnitude displayed is 2.5.

Coastal Water Temperatures

Place Temperature

Stations

Nearby Weather Stations

Station Location Temp. Windchill Dew Point Humidity Wind Precip. Elev Updated Type